Time;durP1;ratioP1;P1;durP2;ratioP2;P2;SDS_P1;SDS_P2;PMS_P1;PMS_P2;Temp;Humidity;BMP_temperature;BMP_pressure;BME280_temperature;BME280_humidity;BME280_pressure;Samples;Min_cycle;Max_cycle;Signal;HPM_P1;HPM_P2
2023/08/16 00:01:57;;;;;;;3.92;2.30;;;27.30;71.50;;;;;;5008382;28;20018;-56
2023/08/16 00:04:23;;;;;;;4.53;2.10;;;27.30;71.60;;;;;;5026228;28;20036;-56
2023/08/16 00:06:49;;;;;;;2.75;2.17;;;27.30;71.70;;;;;;5024676;28;20179;-55
2023/08/16 00:09:16;;;;;;;6.28;2.20;;;27.30;71.80;;;;;;5025956;28;20121;-55
2023/08/16 00:11:41;;;;;;;3.75;2.35;;;27.30;71.90;;;;;;5024637;28;20018;-56
2023/08/16 00:14:07;;;;;;;3.72;1.90;;;27.20;71.90;;;;;;5024583;28;20113;-56
2023/08/16 00:16:32;;;;;;;3.88;2.08;;;27.20;72.70;;;;;;5040545;28;20037;-56
2023/08/16 00:18:58;;;;;;;2.40;2.10;;;27.20;72.70;;;;;;5025914;28;20018;-56
2023/08/16 00:21:24;;;;;;;5.18;2.28;;;27.20;72.20;;;;;;5024417;28;20041;-56
2023/08/16 00:23:49;;;;;;;5.78;2.13;;;27.10;72.10;;;;;;5024504;28;20022;-56
2023/08/16 00:26:15;;;;;;;10.10;2.38;;;27.10;72.20;;;;;;5024343;28;20053;-56
2023/08/16 00:28:42;;;;;;;6.13;2.30;;;27.10;72.30;;;;;;5025789;28;20086;-56
2023/08/16 00:31:07;;;;;;;2.97;2.10;;;27.10;72.40;;;;;;5024369;28;20478;-55
2023/08/16 00:33:33;;;;;;;8.38;2.38;;;27.00;72.40;;;;;;5023943;28;20034;-56
2023/08/16 00:35:58;;;;;;;2.53;2.00;;;27.00;72.50;;;;;;5040676;28;20056;-56
2023/08/16 00:38:24;;;;;;;3.30;2.20;;;27.00;72.50;;;;;;5024076;28;20026;-55
2023/08/16 00:40:50;;;;;;;3.70;2.35;;;27.00;72.70;;;;;;5025532;28;20041;-56
2023/08/16 00:43:16;;;;;;;3.58;2.28;;;27.00;72.80;;;;;;5023806;28;20109;-56
2023/08/16 00:45:43;;;;;;;5.18;2.13;;;27.00;72.70;;;;;;5024307;28;20402;-56
2023/08/16 00:48:09;;;;;;;3.00;2.28;;;26.90;73.40;;;;;;5024025;28;20044;-56
2023/08/16 00:50:34;;;;;;;3.13;2.03;;;26.90;72.80;;;;;;5023939;28;20112;-56
2023/08/16 00:53:00;;;;;;;5.13;2.15;;;26.90;72.90;;;;;;5023859;28;20125;-56
2023/08/16 00:55:25;;;;;;;6.25;2.25;;;26.90;72.90;;;;;;5023796;28;20030;-56
2023/08/16 00:57:51;;;;;;;3.05;2.20;;;26.80;72.90;;;;;;5007359;28;20056;-56
2023/08/16 01:00:16;;;;;;;3.85;2.50;;;26.80;73.00;;;;;;5023605;28;20022;-56
2023/08/16 01:02:42;;;;;;;2.70;2.10;;;26.80;73.10;;;;;;5023814;28;20085;-56
2023/08/16 01:05:08;;;;;;;5.78;2.50;;;26.80;73.10;;;;;;5025122;28;20061;-56
2023/08/16 01:07:33;;;;;;;3.60;2.40;;;26.80;73.30;;;;;;5023681;28;20141;-56
2023/08/16 01:09:59;;;;;;;2.92;2.30;;;26.70;73.40;;;;;;5025181;28;20026;-56
2023/08/16 01:12:35;;;;;;;8.80;2.33;;;26.80;73.70;;;;;;5023729;28;20038;-56
2023/08/16 01:15:07;;;;;;;2.58;2.38;;;26.70;73.50;;;;;;5023788;28;20171;-56
2023/08/16 01:17:33;;;;;;;2.67;2.20;;;26.70;73.70;;;;;;5023744;28;20052;-56
2023/08/16 01:19:59;;;;;;;2.40;2.20;;;26.70;73.60;;;;;;5023753;28;20026;-56
2023/08/16 01:22:57;;;;;;;5.68;2.10;;;26.60;73.70;;;;;;5023569;28;20022;-56
2023/08/16 01:25:48;;;;;;;4.63;2.40;;;26.60;73.80;;;;;;5023777;28;20076;-56
2023/08/16 01:28:14;;;;;;;6.45;2.38;;;26.60;73.90;;;;;;5024945;28;20041;-56
2023/08/16 01:30:45;;;;;;;4.72;2.40;;;26.60;74.10;;;;;;5023587;28;20026;-56
2023/08/16 01:33:11;;;;;;;3.80;2.42;;;26.60;74.30;;;;;;5023634;28;20069;-56
2023/08/16 01:35:37;;;;;;;3.00;2.38;;;26.50;74.30;;;;;;5023517;28;20052;-56
2023/08/16 01:38:03;;;;;;;5.68;2.40;;;26.50;74.40;;;;;;5024847;28;20081;-56
2023/08/16 01:40:38;;;;;;;3.97;2.28;;;26.50;74.40;;;;;;5007135;28;20022;-56
2023/08/16 01:43:05;;;;;;;3.90;2.20;;;26.50;74.50;;;;;;5023398;28;20149;-56
2023/08/16 01:45:30;;;;;;;3.53;2.38;;;26.40;74.60;;;;;;5026224;28;20026;-56
2023/08/16 01:47:56;;;;;;;3.97;2.20;;;26.40;74.70;;;;;;5027114;28;20038;-56
2023/08/16 01:50:21;;;;;;;3.92;2.60;;;26.40;74.70;;;;;;5028613;28;20113;-56
2023/08/16 01:52:47;;;;;;;5.53;2.40;;;26.40;74.90;;;;;;5028599;28;20121;-56
2023/08/16 01:55:12;;;;;;;2.55;2.13;;;26.40;75.00;;;;;;5027199;28;20034;-56
2023/08/16 01:57:38;;;;;;;3.95;2.03;;;26.40;75.00;;;;;;5028674;28;20470;-56
2023/08/16 02:00:04;;;;;;;3.50;2.47;;;26.30;75.00;;;;;;5027259;28;20129;-56
2023/08/16 02:02:30;;;;;;;3.58;2.42;;;26.30;75.20;;;;;;5028446;28;20037;-56
2023/08/16 02:04:56;;;;;;;2.40;2.20;;;26.30;75.20;;;;;;5028488;28;20088;-56
2023/08/16 02:07:21;;;;;;;2.47;1.80;;;26.30;75.40;;;;;;5028126;28;20445;-56
2023/08/16 02:09:47;;;;;;;3.20;2.22;;;26.20;75.50;;;;;;5028388;28;20037;-56
2023/08/16 02:12:13;;;;;;;3.67;2.47;;;26.20;75.60;;;;;;5028184;28;20048;-56
2023/08/16 02:14:38;;;;;;;3.90;2.33;;;26.20;75.60;;;;;;5027944;28;20030;-56
2023/08/16 02:17:04;;;;;;;5.68;2.50;;;26.20;75.60;;;;;;5028062;28;20029;-56
2023/08/16 02:19:29;;;;;;;3.63;2.53;;;26.20;75.80;;;;;;5028308;28;20018;-56
2023/08/16 02:21:55;;;;;;;3.13;2.33;;;26.20;75.90;;;;;;5028024;28;20022;-56
2023/08/16 02:24:20;;;;;;;3.85;2.50;;;26.20;76.10;;;;;;5027903;28;20032;-56
2023/08/16 02:26:46;;;;;;;3.63;2.20;;;26.10;75.90;;;;;;5028077;28;20022;-56
2023/08/16 02:29:11;;;;;;;3.60;2.60;;;26.10;76.00;;;;;;5028051;28;20076;-56
2023/08/16 02:31:37;;;;;;;3.63;2.30;;;26.10;76.10;;;;;;5027926;28;20022;-56
2023/08/16 02:34:02;;;;;;;6.68;2.75;;;26.00;76.20;;;;;;5027971;28;20109;-56
2023/08/16 02:36:28;;;;;;;4.47;2.80;;;26.00;76.40;;;;;;5027831;28;20088;-56
2023/08/16 02:38:54;;;;;;;3.08;2.33;;;26.00;76.40;;;;;;5027679;28;20087;-56
2023/08/16 02:41:19;;;;;;;6.38;2.53;;;26.00;76.60;;;;;;5027670;28;20032;-56
2023/08/16 02:43:45;;;;;;;6.53;2.70;;;26.00;76.70;;;;;;5027348;28;20483;-56
2023/08/16 02:46:10;;;;;;;6.15;2.58;;;26.00;76.80;;;;;;5027535;28;20026;-56
2023/08/16 02:48:36;;;;;;;9.70;2.60;;;26.00;77.00;;;;;;5027634;28;20583;-56
2023/08/16 02:51:01;;;;;;;5.97;2.60;;;26.00;77.20;;;;;;5027385;28;20053;-56
2023/08/16 02:53:27;;;;;;;4.68;2.70;;;26.00;78.00;;;;;;5027494;28;20042;-56
2023/08/16 02:55:52;;;;;;;4.35;2.70;;;25.90;77.50;;;;;;5026707;28;20080;-55
2023/08/16 02:58:18;;;;;;;4.65;2.70;;;25.90;77.50;;;;;;5026266;28;20033;-56
2023/08/16 03:00:43;;;;;;;4.35;3.53;;;25.90;77.50;;;;;;5027423;28;20025;-56
2023/08/16 03:03:09;;;;;;;5.45;3.30;;;25.90;77.60;;;;;;5027195;28;20038;-56
2023/08/16 03:05:34;;;;;;;5.32;3.53;;;25.90;77.70;;;;;;5027265;28;20022;-56
2023/08/16 03:08:00;;;;;;;6.75;3.53;;;25.80;77.80;;;;;;5027207;28;20084;-56
2023/08/16 03:10:25;;;;;;;5.07;2.85;;;25.80;77.90;;;;;;5027161;28;20033;-56
2023/08/16 03:12:51;;;;;;;4.88;3.30;;;25.80;78.10;;;;;;5027273;28;20038;-56
2023/08/16 03:15:17;;;;;;;4.95;3.10;;;25.80;78.10;;;;;;5027006;28;20458;-56
2023/08/16 03:17:42;;;;;;;6.82;3.00;;;25.80;78.20;;;;;;5026940;28;20045;-56
2023/08/16 03:20:09;;;;;;;5.63;3.17;;;25.80;78.30;;;;;;5026786;28;20036;-55
2023/08/16 03:22:35;;;;;;;8.60;3.40;;;25.80;78.40;;;;;;5026973;28;20056;-56
2023/08/16 03:25:00;;;;;;;8.57;3.97;;;25.80;78.50;;;;;;5025462;28;20502;-56
2023/08/16 03:27:26;;;;;;;5.22;3.20;;;25.80;78.60;;;;;;5027262;28;20156;-55
2023/08/16 03:29:51;;;;;;;4.85;3.25;;;25.70;78.60;;;;;;5029173;28;20109;-55
2023/08/16 03:32:17;;;;;;;6.05;4.07;;;25.70;78.60;;;;;;5026496;28;20052;-55
2023/08/16 03:34:43;;;;;;;6.15;3.78;;;25.70;78.70;;;;;;5026652;28;20089;-56
2023/08/16 03:37:08;;;;;;;5.00;3.80;;;25.70;78.80;;;;;;5026603;28;20045;-56
2023/08/16 03:39:34;;;;;;;5.60;3.65;;;25.60;78.90;;;;;;5026589;28;20021;-56
2023/08/16 03:41:59;;;;;;;7.80;5.13;;;25.60;78.90;;;;;;5025131;28;20030;-56
2023/08/16 03:44:25;;;;;;;8.73;5.70;;;25.60;78.90;;;;;;5026599;28;20032;-56
2023/08/16 03:46:51;;;;;;;9.55;5.47;;;25.70;79.20;;;;;;5026507;28;20049;-56
2023/08/16 03:49:16;;;;;;;8.07;5.78;;;25.60;79.10;;;;;;5026447;28;20026;-56
2023/08/16 03:51:42;;;;;;;7.13;4.80;;;25.60;79.10;;;;;;5026348;28;20030;-56
2023/08/16 03:54:07;;;;;;;8.07;4.57;;;25.60;79.20;;;;;;5026634;28;20091;-56
2023/08/16 03:56:33;;;;;;;16.30;6.63;;;25.60;79.30;;;;;;5026138;28;20022;-56
2023/08/16 03:58:58;;;;;;;25.67;6.63;;;25.60;79.50;;;;;;5025110;28;20454;-56
2023/08/16 04:01:24;;;;;;;10.48;6.15;;;25.60;79.50;;;;;;5026121;28;20030;-55
2023/08/16 04:03:50;;;;;;;22.83;7.60;;;25.60;79.60;;;;;;5024664;28;20081;-56
2023/08/16 04:06:19;;;;;;;47.33;9.52;;;25.50;79.60;;;;;;5025661;28;20087;-56
2023/08/16 04:08:45;;;;;;;45.25;7.78;;;25.50;79.70;;;;;;5025615;28;20398;-56
2023/08/16 04:11:10;;;;;;;32.67;8.13;;;25.50;79.70;;;;;;5025942;28;20030;-56
2023/08/16 04:13:36;;;;;;;41.30;8.88;;;25.50;79.80;;;;;;5026088;28;20053;-56
2023/08/16 04:16:01;;;;;;;72.85;10.88;;;25.50;80.00;;;;;;5025997;28;20041;-56
2023/08/16 04:18:27;;;;;;;56.67;9.57;;;25.40;80.00;;;;;;5025877;28;20045;-55
2023/08/16 04:20:53;;;;;;;47.40;8.80;;;25.40;80.00;;;;;;5024530;28;20390;-56
2023/08/16 04:23:18;;;;;;;37.30;9.00;;;25.40;80.20;;;;;;5025755;28;20034;-56
2023/08/16 04:25:44;;;;;;;47.03;9.63;;;25.40;81.10;;;;;;5024376;28;20054;-56
2023/08/16 04:28:09;;;;;;;45.97;9.43;;;25.40;80.30;;;;;;5025652;28;20038;-56
2023/08/16 04:30:35;;;;;;;39.88;8.95;;;25.40;80.50;;;;;;5023697;28;20026;-56
2023/08/16 04:33:00;;;;;;;52.60;9.93;;;25.40;80.80;;;;;;5023806;28;20033;-56
2023/08/16 04:35:26;;;;;;;37.22;9.43;;;25.40;80.80;;;;;;5025473;28;20057;-56
2023/08/16 04:37:51;;;;;;;33.40;9.07;;;25.30;80.60;;;;;;5025502;28;20025;-56
2023/08/16 04:40:17;;;;;;;45.88;9.32;;;25.30;80.70;;;;;;5025558;28;20064;-56
2023/08/16 04:42:43;;;;;;;45.28;9.57;;;25.30;80.80;;;;;;5025409;28;20029;-56
2023/08/16 04:45:09;;;;;;;50.63;8.85;;;25.30;81.10;;;;;;5024114;28;20034;-56
2023/08/16 04:47:34;;;;;;;51.22;10.20;;;25.30;81.10;;;;;;5040414;28;20383;-56
2023/08/16 04:50:02;;;;;;;34.28;9.23;;;25.30;80.90;;;;;;5025455;28;20025;-56
2023/08/16 04:52:28;;;;;;;44.00;9.45;;;25.20;81.00;;;;;;5025186;28;20108;-56
2023/08/16 04:54:54;;;;;;;41.72;9.73;;;25.30;81.00;;;;;;5025104;28;20026;-56
2023/08/16 04:57:19;;;;;;;30.88;10.20;;;25.30;81.10;;;;;;5025283;28;20026;-56
2023/08/16 04:59:45;;;;;;;26.52;8.73;;;25.20;81.20;;;;;;5025217;28;20022;-56
2023/08/16 05:02:10;;;;;;;37.75;8.57;;;25.20;81.20;;;;;;5025176;28;20108;-56
2023/08/16 05:04:36;;;;;;;48.63;8.57;;;25.20;81.30;;;;;;5024850;28;20049;-56
2023/08/16 05:07:01;;;;;;;40.78;9.63;;;25.20;81.20;;;;;;5023522;28;20034;-56
2023/08/16 05:09:27;;;;;;;38.38;9.63;;;25.20;81.30;;;;;;5025061;28;20036;-56
2023/08/16 05:11:53;;;;;;;42.72;9.68;;;25.20;81.90;;;;;;5024897;28;20026;-56
2023/08/16 05:14:19;;;;;;;32.65;9.65;;;25.20;81.20;;;;;;5023575;28;20030;-56
2023/08/16 05:16:44;;;;;;;31.05;7.80;;;25.10;81.30;;;;;;5024097;28;20033;-55
2023/08/16 05:19:10;;;;;;;29.77;7.10;;;25.10;81.70;;;;;;5023272;28;20030;-56
2023/08/16 05:21:35;;;;;;;20.80;6.07;;;25.10;82.10;;;;;;5024857;28;20033;-56
2023/08/16 05:24:01;;;;;;;26.80;6.50;;;25.10;82.80;;;;;;5024884;28;20026;-56
2023/08/16 05:26:26;;;;;;;23.55;5.82;;;24.90;83.20;;;;;;5024797;28;20045;-56
2023/08/16 05:28:52;;;;;;;33.83;5.55;;;24.90;83.70;;;;;;5025142;28;20053;-55
2023/08/16 05:31:17;;;;;;;22.85;6.20;;;24.80;84.00;;;;;;5024944;28;20158;-56
2023/08/16 05:33:43;;;;;;;25.55;5.00;;;24.80;84.30;;;;;;5025287;28;20136;-56
2023/08/16 05:36:08;;;;;;;32.65;5.45;;;24.80;84.60;;;;;;5024740;28;20097;-56
2023/08/16 05:38:34;;;;;;;29.70;5.63;;;24.70;84.80;;;;;;5024688;28;20022;-56
2023/08/16 05:41:03;;;;;;;19.30;4.63;;;24.70;85.10;;;;;;5024756;28;20030;-56
2023/08/16 05:43:28;;;;;;;23.90;4.80;;;24.60;85.30;;;;;;5023436;28;20029;-56
2023/08/16 05:45:54;;;;;;;21.40;4.95;;;24.60;85.60;;;;;;5024754;28;20029;-56
2023/08/16 05:48:19;;;;;;;24.90;5.00;;;24.60;85.80;;;;;;5024689;28;20058;-56
2023/08/16 05:50:45;;;;;;;16.80;5.43;;;24.50;86.00;;;;;;5024402;28;20033;-56
2023/08/16 05:53:10;;;;;;;12.63;4.43;;;24.50;86.10;;;;;;5024659;28;20415;-55
2023/08/16 05:55:36;;;;;;;15.82;3.83;;;24.50;86.20;;;;;;5023109;28;20038;-56
2023/08/16 05:58:02;;;;;;;20.85;5.55;;;24.40;86.50;;;;;;5024485;28;20041;-56
2023/08/16 06:00:27;;;;;;;32.13;5.45;;;24.40;86.70;;;;;;5023150;28;20451;-56
2023/08/16 06:02:53;;;;;;;24.88;4.60;;;24.40;86.90;;;;;;5024539;28;20034;-56
2023/08/16 06:05:19;;;;;;;28.10;5.15;;;24.30;87.60;;;;;;5024586;28;20034;-56
2023/08/16 06:07:45;;;;;;;21.23;5.43;;;24.40;87.20;;;;;;5024682;28;20424;-55
2023/08/16 06:10:10;;;;;;;17.00;4.50;;;24.40;87.20;;;;;;5024704;28;20026;-56
2023/08/16 06:12:36;;;;;;;13.52;4.10;;;24.30;87.30;;;;;;5023291;28;20065;-56
2023/08/16 06:15:02;;;;;;;25.60;4.93;;;24.30;87.40;;;;;;5024348;28;20029;-56
2023/08/16 06:17:28;;;;;;;18.75;4.65;;;24.20;87.60;;;;;;5024601;28;20034;-56
2023/08/16 06:19:53;;;;;;;12.13;4.32;;;24.20;87.70;;;;;;5022730;28;20041;-55
2023/08/16 06:22:19;;;;;;;13.80;3.95;;;24.20;87.80;;;;;;5011506;28;20051;-56
2023/08/16 06:24:44;;;;;;;13.00;4.55;;;24.20;87.90;;;;;;5022372;28;20057;-56
2023/08/16 06:27:10;;;;;;;8.68;3.95;;;24.20;88.10;;;;;;5024180;28;20034;-56
2023/08/16 06:29:35;;;;;;;15.68;4.10;;;24.30;88.10;;;;;;5024242;28;20049;-56
2023/08/16 06:32:01;;;;;;;9.02;4.20;;;24.20;88.10;;;;;;5027311;28;20052;-56
2023/08/16 06:34:27;;;;;;;7.93;4.07;;;24.20;88.20;;;;;;5026423;28;20044;-56
2023/08/16 06:36:53;;;;;;;10.40;4.20;;;24.20;88.30;;;;;;5027641;28;20078;-56
2023/08/16 06:39:18;;;;;;;10.85;3.90;;;24.20;88.20;;;;;;5039532;28;20025;-56
2023/08/16 06:41:44;;;;;;;6.00;3.75;;;24.20;88.70;;;;;;5027435;28;20496;-56
2023/08/16 06:44:10;;;;;;;9.80;3.67;;;24.20;89.10;;;;;;5025315;28;20041;-55
2023/08/16 06:46:35;;;;;;;10.25;4.05;;;24.20;88.50;;;;;;5027187;28;20021;-56
2023/08/16 06:49:01;;;;;;;6.35;4.13;;;24.20;88.60;;;;;;5013316;28;20362;-56
2023/08/16 06:51:26;;;;;;;6.22;3.72;;;24.20;88.60;;;;;;5007590;28;20038;-56
2023/08/16 06:53:52;;;;;;;9.10;3.80;;;24.20;88.50;;;;;;5032784;28;20030;-56
2023/08/16 06:56:17;;;;;;;12.15;4.50;;;24.20;88.40;;;;;;5046550;28;20129;-56
2023/08/16 06:58:43;;;;;;;10.25;4.07;;;24.20;88.70;;;;;;5022328;28;20109;-55
2023/08/16 07:01:09;;;;;;;15.05;4.47;;;24.20;88.70;;;;;;5007052;28;20041;-56
2023/08/16 07:03:35;;;;;;;12.73;4.20;;;24.20;88.60;;;;;;5018829;28;20030;-56
2023/08/16 07:06:00;;;;;;;15.18;4.28;;;24.20;88.60;;;;;;5041445;28;20129;-56
2023/08/16 07:08:26;;;;;;;20.00;4.70;;;24.20;88.70;;;;;;5026410;28;20034;-56
2023/08/16 07:10:52;;;;;;;14.77;4.70;;;24.20;88.30;;;;;;5026655;28;20021;-55
2023/08/16 07:13:17;;;;;;;14.13;4.80;;;24.20;88.30;;;;;;5026908;28;20450;-55
2023/08/16 07:15:43;;;;;;;26.55;5.63;;;24.20;88.30;;;;;;5027826;28;20033;-55
2023/08/16 07:18:09;;;;;;;23.40;5.65;;;24.20;88.30;;;;;;5018524;28;20034;-56
2023/08/16 07:20:34;;;;;;;13.30;4.47;;;24.20;88.20;;;;;;5021740;28;20118;-55
2023/08/16 07:23:00;;;;;;;16.45;5.20;;;24.20;88.10;;;;;;5013884;28;20050;-56
2023/08/16 07:25:28;;;;;;;12.93;5.35;;;24.20;88.00;;;;;;5026507;28;20362;-56
2023/08/16 07:27:54;;;;;;;18.42;4.65;;;24.20;88.10;;;;;;5022066;28;20037;-56
2023/08/16 07:30:19;;;;;;;18.55;4.80;;;24.30;88.00;;;;;;5019108;28;20057;-56
2023/08/16 07:32:45;;;;;;;21.50;5.15;;;24.30;88.20;;;;;;5026398;28;20038;-56
2023/08/16 07:35:11;;;;;;;19.33;5.10;;;24.30;88.00;;;;;;5043134;28;20039;-56
2023/08/16 07:37:37;;;;;;;24.10;5.65;;;24.30;87.90;;;;;;5024733;28;20034;-56
2023/08/16 07:40:03;;;;;;;15.00;5.00;;;24.30;88.00;;;;;;5010723;28;20029;-56
2023/08/16 07:42:29;;;;;;;26.70;6.13;;;24.30;88.00;;;;;;5009899;28;20033;-56
2023/08/16 07:44:57;;;;;;;34.63;6.85;;;24.40;88.10;;;;;;5040957;28;20030;-56
2023/08/16 07:47:22;;;;;;;22.75;5.95;;;24.40;88.00;;;;;;5027405;28;20038;-56
2023/08/16 07:49:48;;;;;;;20.05;5.65;;;24.40;88.00;;;;;;5019138;28;20049;-55
2023/08/16 07:52:13;;;;;;;23.70;5.55;;;24.40;87.90;;;;;;5024090;28;20033;-56
2023/08/16 07:54:39;;;;;;;12.45;5.65;;;24.40;88.10;;;;;;5012476;28;20130;-56
2023/08/16 07:57:05;;;;;;;22.52;5.47;;;24.40;88.10;;;;;;5020951;28;20025;-56
2023/08/16 07:59:31;;;;;;;27.38;5.68;;;24.40;88.00;;;;;;5021916;28;20030;-56
2023/08/16 08:01:56;;;;;;;38.10;6.25;;;24.40;87.80;;;;;;5021250;28;20157;-56
2023/08/16 08:04:22;;;;;;;38.28;8.82;;;24.40;87.70;;;;;;5021591;28;20026;-53
2023/08/16 08:06:48;;;;;;;54.83;12.30;;;24.50;87.70;;;;;;5019831;28;20035;-54
2023/08/16 08:09:13;;;;;;;56.42;11.23;;;24.50;87.60;;;;;;5021640;28;20351;-55
2023/08/16 08:11:39;;;;;;;63.20;12.77;;;24.50;87.70;;;;;;5019625;28;20034;-55
2023/08/16 08:14:05;;;;;;;40.33;9.93;;;24.60;87.80;;;;;;5022789;28;20091;-56
2023/08/16 08:16:30;;;;;;;46.97;10.13;;;24.60;87.70;;;;;;5023000;28;20089;-56
2023/08/16 08:18:56;;;;;;;30.98;8.75;;;24.60;87.50;;;;;;5021495;28;20034;-56
2023/08/16 08:21:22;;;;;;;113.60;16.55;;;24.60;87.30;;;;;;5018333;28;20399;-55
2023/08/16 08:23:47;;;;;;;62.20;11.48;;;24.60;87.50;;;;;;5020082;28;20250;-56
2023/08/16 08:26:13;;;;;;;43.55;9.45;;;24.70;87.60;;;;;;5019368;28;20043;-56
2023/08/16 08:28:38;;;;;;;59.58;11.57;;;24.70;87.50;;;;;;5034295;28;20161;-55
2023/08/16 08:31:04;;;;;;;42.63;11.07;;;24.70;87.40;;;;;;5019582;28;20025;-56
2023/08/16 08:33:30;;;;;;;47.20;9.45;;;24.70;87.10;;;;;;5013767;28;20361;-56
2023/08/16 08:35:56;;;;;;;57.10;10.98;;;24.80;86.80;;;;;;5019224;28;20054;-55
2023/08/16 08:38:22;;;;;;;60.67;11.07;;;24.80;87.00;;;;;;5020128;28;20446;-56
2023/08/16 08:40:56;;;;;;;42.20;9.18;;;24.80;87.00;;;;;;5016578;28;20022;-56
2023/08/16 08:43:22;;;;;;;68.65;11.50;;;24.80;87.10;;;;;;5017221;28;20038;-56
2023/08/16 08:45:49;;;;;;;65.75;11.63;;;24.80;87.80;;;;;;5002383;28;20057;-56
2023/08/16 08:48:15;;;;;;;108.10;13.32;;;24.80;87.20;;;;;;5013255;28;20458;-56
2023/08/16 08:50:41;;;;;;;58.63;10.82;;;24.90;87.30;;;;;;5014268;28;20061;-56
2023/08/16 08:53:06;;;;;;;55.95;10.35;;;24.90;86.90;;;;;;5023487;28;20125;-56
2023/08/16 08:55:32;;;;;;;57.55;10.13;;;24.90;86.60;;;;;;5017401;28;20533;-56
2023/08/16 08:58:01;;;;;;;43.67;9.05;;;24.90;86.80;;;;;;5016583;28;20026;-56
2023/08/16 09:00:27;;;;;;;44.60;8.75;;;24.90;86.80;;;;;;5016942;28;20022;-56
2023/08/16 09:02:53;;;;;;;34.50;8.10;;;24.90;87.10;;;;;;5013776;28;20068;-56
2023/08/16 09:05:21;;;;;;;42.72;8.27;;;24.90;86.90;;;;;;5016525;28;20056;-56
2023/08/16 09:07:46;;;;;;;38.72;8.40;;;24.90;87.00;;;;;;5017590;28;20041;-56
2023/08/16 09:10:12;;;;;;;53.97;10.00;;;25.00;87.10;;;;;;5015556;28;20034;-56
2023/08/16 09:12:38;;;;;;;34.22;7.53;;;25.00;87.00;;;;;;5012626;28;20066;-56
2023/08/16 09:15:07;;;;;;;43.22;8.00;;;25.10;87.00;;;;;;5016558;28;20452;-56
2023/08/16 09:17:33;;;;;;;48.63;8.55;;;25.10;86.90;;;;;;5012721;28;20030;-56
2023/08/16 09:19:59;;;;;;;35.90;9.07;;;25.10;86.90;;;;;;5011899;28;20033;-55
2023/08/16 09:22:24;;;;;;;43.85;8.73;;;25.10;86.90;;;;;;5010380;28;20034;-56
2023/08/16 09:24:55;;;;;;;40.75;9.32;;;25.20;86.80;;;;;;4998910;28;20025;-55
2023/08/16 09:27:22;;;;;;;47.30;9.15;;;25.20;86.60;;;;;;5004888;28;20069;-56
2023/08/16 09:29:48;;;;;;;52.70;9.73;;;25.20;86.40;;;;;;5015316;28;20092;-55
2023/08/16 09:32:13;;;;;;;41.42;8.70;;;25.30;86.70;;;;;;5022690;28;20038;-56
2023/08/16 09:34:39;;;;;;;46.80;9.23;;;25.30;86.60;;;;;;5018280;28;20585;-56
2023/08/16 09:37:05;;;;;;;61.00;10.15;;;25.30;86.70;;;;;;5019956;28;20041;-56
2023/08/16 09:39:30;;;;;;;57.97;8.60;;;25.40;86.70;;;;;;5021850;28;20719;-56
2023/08/16 09:41:56;;;;;;;73.30;9.93;;;25.40;86.80;;;;;;5029324;28;20062;-56
2023/08/16 09:44:26;;;;;;;48.67;8.30;;;25.40;86.80;;;;;;5028346;28;20091;-56
2023/08/16 09:46:52;;;;;;;47.90;8.35;;;25.40;86.60;;;;;;5026123;28;20034;-56
2023/08/16 09:49:17;;;;;;;32.35;7.75;;;25.50;86.40;;;;;;5024027;28;20100;-56
2023/08/16 09:51:45;;;;;;;39.13;6.78;;;25.50;86.40;;;;;;5022202;28;20037;-56
2023/08/16 09:54:14;;;;;;;26.00;6.25;;;25.50;86.20;;;;;;5014763;28;20041;-56
2023/08/16 09:56:40;;;;;;;50.40;9.93;;;25.50;85.50;;;;;;5025716;28;20029;-56
2023/08/16 09:59:07;;;;;;;55.78;10.10;;;25.60;85.80;;;;;;5021003;28;20033;-56
2023/08/16 10:01:33;;;;;;;52.90;9.98;;;25.60;85.70;;;;;;5017228;28;20053;-56
2023/08/16 10:03:59;;;;;;;53.70;10.18;;;25.70;85.50;;;;;;5023619;28;20061;-56
2023/08/16 10:06:25;;;;;;;66.40;10.13;;;25.70;84.90;;;;;;5028004;28;20038;-56
2023/08/16 10:08:52;;;;;;;70.93;10.35;;;25.80;84.80;;;;;;5025528;28;20069;-56
2023/08/16 10:11:18;;;;;;;76.32;12.02;;;25.90;84.50;;;;;;5032126;28;20041;-56
2023/08/16 10:13:44;;;;;;;75.07;10.63;;;25.90;84.10;;;;;;5023818;28;20030;-56
2023/08/16 10:16:12;;;;;;;72.80;11.27;;;25.90;83.90;;;;;;5031498;28;20116;-56
2023/08/16 10:18:39;;;;;;;69.75;10.18;;;26.00;83.80;;;;;;5019279;28;20059;-56
2023/08/16 10:21:05;;;;;;;76.00;11.48;;;26.00;83.50;;;;;;5017586;28;20029;-56
2023/08/16 10:23:30;;;;;;;68.63;9.73;;;26.10;83.40;;;;;;5031664;28;20041;-56
2023/08/16 10:25:56;;;;;;;68.90;10.68;;;26.10;83.30;;;;;;5031254;28;20025;-56
2023/08/16 10:28:22;;;;;;;82.38;11.73;;;26.10;83.20;;;;;;5011729;28;20033;-56
2023/08/16 10:30:50;;;;;;;89.22;12.30;;;26.20;83.20;;;;;;5024050;28;20060;-56
2023/08/16 10:33:30;;;;;;;73.90;11.98;;;26.20;83.10;;;;;;5034092;28;20485;-56
2023/08/16 10:35:55;;;;;;;102.68;13.75;;;26.30;82.80;;;;;;5012686;28;20099;-55
2023/08/16 10:38:21;;;;;;;96.63;14.00;;;26.30;82.70;;;;;;5023506;28;20030;-56
2023/08/16 10:40:59;;;;;;;90.85;12.30;;;26.40;82.70;;;;;;5028718;28;20033;-56
2023/08/16 10:43:34;;;;;;;83.70;12.57;;;26.40;82.70;;;;;;5032390;28;20163;-56
2023/08/16 10:46:00;;;;;;;91.90;13.63;;;26.40;82.80;;;;;;5032920;28;20034;-56
2023/08/16 10:48:30;;;;;;;86.03;13.65;;;26.40;82.60;;;;;;5023977;28;20117;-56
2023/08/16 10:50:59;;;;;;;81.90;12.60;;;26.40;82.50;;;;;;5007144;28;20059;-55
2023/08/16 10:53:27;;;;;;;90.00;13.75;;;26.50;82.50;;;;;;5031748;28;20109;-56
2023/08/16 10:55:55;;;;;;;95.70;13.98;;;26.50;82.40;;;;;;5023080;28;20101;-55
2023/08/16 10:58:23;;;;;;;93.95;14.23;;;26.50;83.20;;;;;;5032229;28;20030;-56
2023/08/16 11:00:57;;;;;;;69.80;11.40;;;26.60;82.20;;;;;;5032791;28;20093;-56
2023/08/16 11:03:37;;;;;;;70.18;11.05;;;26.70;82.10;;;;;;5018974;28;20049;-56
2023/08/16 11:06:10;;;;;;;78.68;13.25;;;26.70;81.80;;;;;;5020652;28;20033;-56
2023/08/16 11:08:42;;;;;;;77.78;12.10;;;26.70;81.60;;;;;;5026377;28;20049;-56
2023/08/16 11:11:07;;;;;;;86.32;12.25;;;26.80;81.50;;;;;;5022575;28;20030;-56
2023/08/16 11:13:33;;;;;;;76.55;12.82;;;26.80;81.30;;;;;;5032509;28;20454;-56
2023/08/16 11:15:59;;;;;;;76.88;10.63;;;26.90;81.10;;;;;;5023847;28;20038;-56
2023/08/16 11:18:32;;;;;;;78.47;11.35;;;26.90;80.80;;;;;;5024633;28;20037;-56
2023/08/16 11:21:00;;;;;;;69.57;11.02;;;27.00;80.50;;;;;;5022962;28;20041;-56
2023/08/16 11:23:37;;;;;;;55.38;10.07;;;27.10;80.00;;;;;;5023079;28;20068;-55
2023/08/16 11:26:03;;;;;;;77.38;11.88;;;27.20;79.50;;;;;;5015030;28;20222;-56
2023/08/16 11:28:30;;;;;;;89.60;11.98;;;27.20;79.30;;;;;;5024807;28;20034;-56
2023/08/16 11:30:56;;;;;;;67.50;11.05;;;27.30;79.00;;;;;;5018225;28;20035;-56
2023/08/16 11:33:22;;;;;;;89.60;12.15;;;27.40;78.60;;;;;;5007719;28;20042;-56
2023/08/16 11:35:48;;;;;;;67.55;10.55;;;27.40;78.10;;;;;;5024963;28;20613;-56
2023/08/16 11:38:16;;;;;;;98.13;13.38;;;27.50;77.50;;;;;;5027256;28;20030;-56
2023/08/16 11:40:46;;;;;;;67.32;10.90;;;27.60;77.00;;;;;;5028894;28;20049;-56
2023/08/16 11:43:12;;;;;;;68.65;10.05;;;27.70;76.60;;;;;;5024812;28;20114;-56
2023/08/16 11:45:37;;;;;;;72.63;10.10;;;27.80;75.60;;;;;;5020826;28;20034;-55
2023/08/16 11:48:03;;;;;;;79.28;12.30;;;27.90;75.40;;;;;;5024692;28;20034;-56
2023/08/16 11:50:29;;;;;;;164.30;20.02;;;27.90;75.00;;;;;;5021762;28;20100;-56
2023/08/16 11:52:58;;;;;;;75.47;11.65;;;28.00;74.80;;;;;;5009811;28;20110;-56
2023/08/16 11:55:25;;;;;;;63.35;10.00;;;28.10;74.30;;;;;;5026005;28;20454;-55
2023/08/16 11:57:51;;;;;;;96.90;11.75;;;28.20;74.00;;;;;;5033564;28;20061;-56
2023/08/16 12:00:28;;;;;;;56.53;9.70;;;28.30;74.00;;;;;;5033695;28;20030;-56
2023/08/16 12:02:58;;;;;;;89.75;11.50;;;28.40;73.80;;;;;;5033000;28;20101;-56
2023/08/16 12:05:23;;;;;;;103.32;12.05;;;28.40;73.60;;;;;;5047976;28;20065;-56
2023/08/16 12:07:53;;;;;;;64.57;10.95;;;28.50;73.50;;;;;;5020796;28;20050;-55
2023/08/16 12:10:27;;;;;;;68.63;10.82;;;28.60;73.30;;;;;;5032737;28;20033;-56
2023/08/16 12:12:53;;;;;;;59.13;10.65;;;28.70;73.10;;;;;;5032681;28;20087;-56
2023/08/16 12:15:23;;;;;;;77.57;12.52;;;28.80;72.90;;;;;;5028140;28;20038;-56
2023/08/16 12:17:49;;;;;;;71.75;10.98;;;28.90;73.10;;;;;;5005862;28;20026;-56
2023/08/16 12:20:14;;;;;;;43.30;8.90;;;29.00;72.90;;;;;;5038141;28;20112;-56
2023/08/16 12:22:40;;;;;;;43.38;8.30;;;29.00;72.80;;;;;;5025381;28;20406;-56
2023/08/16 12:25:06;;;;;;;54.85;8.95;;;29.10;72.90;;;;;;5016817;28;20022;-56
2023/08/16 12:27:31;;;;;;;43.28;7.55;;;29.10;72.70;;;;;;5024849;28;20041;-56
2023/08/16 12:29:57;;;;;;;37.40;7.20;;;29.20;72.80;;;;;;5015277;28;20037;-56
2023/08/16 12:32:22;;;;;;;31.65;6.72;;;29.30;72.80;;;;;;5025404;28;20037;-56
2023/08/16 12:34:48;;;;;;;41.75;7.15;;;29.30;72.40;;;;;;5033006;28;20049;-56